createdAt,value
2022-08-19T00:01:55.931Z,19.90
2022-08-19T00:04:48.908Z,20.25
2022-08-19T00:07:40.365Z,20.25
2022-08-19T00:10:30.386Z,19.27
2022-08-19T00:13:20.485Z,19.90
2022-08-19T00:16:10.438Z,21.33
2022-08-19T00:19:00.769Z,22.02
2022-08-19T00:21:51.271Z,22.42
2022-08-19T00:24:42.149Z,20.73
2022-08-19T00:27:41.399Z,20.65
2022-08-19T00:30:31.663Z,18.40
2022-08-19T00:33:22.631Z,21.63
2022-08-19T00:36:13.123Z,20.88
2022-08-19T00:39:03.970Z,20.35
2022-08-19T00:41:54.489Z,17.83
2022-08-19T00:44:44.958Z,20.42
2022-08-19T00:47:34.770Z,19.45
2022-08-19T00:50:24.881Z,22.23
2022-08-19T00:53:20.265Z,19.88
2022-08-19T00:56:11.441Z,23.40
2022-08-19T00:59:02.709Z,22.98
2022-08-19T01:01:53.418Z,24.45
2022-08-19T01:04:43.752Z,19.92
2022-08-19T01:07:38.191Z,19.58
2022-08-19T01:10:36.673Z,20.63
2022-08-19T01:13:49.505Z,20.95
2022-08-19T01:16:41.933Z,19.20
2022-08-19T01:19:44.343Z,22.85
2022-08-19T01:22:41.452Z,25.05
2022-08-19T01:25:48.364Z,21.33
2022-08-19T01:28:39.875Z,21.65
2022-08-19T01:31:33.655Z,19.25
2022-08-19T01:34:24.573Z,22.75
2022-08-19T01:37:15.436Z,20.67
2022-08-19T01:40:15.714Z,20.10
2022-08-19T01:43:06.757Z,24.52
2022-08-19T01:45:56.965Z,21.27
2022-08-19T01:48:47.727Z,23.75
2022-08-19T01:51:40.189Z,21.50
2022-08-19T01:54:30.527Z,20.48
2022-08-19T01:57:20.946Z,22.75
2022-08-19T02:00:15.131Z,20.70
2022-08-19T02:03:05.600Z,23.15
2022-08-19T02:06:00.959Z,26.02
2022-08-19T02:08:51.316Z,22.77
2022-08-19T02:11:44.458Z,23.67
2022-08-19T02:14:36.078Z,21.17
2022-08-19T02:17:26.384Z,21.45
2022-08-19T02:20:17.270Z,23.20
2022-08-19T02:23:13.892Z,26.48
2022-08-19T02:26:07.384Z,30.90
2022-08-19T02:28:58.561Z,24.48
2022-08-19T02:31:50.412Z,24.70
2022-08-19T02:34:41.388Z,25.80
2022-08-19T02:37:50.118Z,25.48
2022-08-19T02:40:40.305Z,25.80
2022-08-19T02:43:33.794Z,26.35
2022-08-19T02:46:27.970Z,28.65
2022-08-19T02:49:18.893Z,30.65
2022-08-19T02:52:09.203Z,26.73
2022-08-19T02:54:59.555Z,27.52
2022-08-19T02:57:49.696Z,30.17
2022-08-19T03:00:47.702Z,29.02
2022-08-19T03:03:38.770Z,29.70
2022-08-19T03:06:29.333Z,27.70
2022-08-19T03:09:21.048Z,28.05
2022-08-19T03:12:11.778Z,28.33
2022-08-19T03:15:01.855Z,24.77
2022-08-19T03:17:52.307Z,27.17
2022-08-19T03:20:48.394Z,27.55
2022-08-19T03:23:38.294Z,29.25
2022-08-19T03:26:29.755Z,29.08
2022-08-19T03:29:30.226Z,32.70
2022-08-19T03:32:32.789Z,30.42
2022-08-19T03:35:23.394Z,33.95
2022-08-19T03:38:13.803Z,33.92
2022-08-19T03:41:07.279Z,31.60
2022-08-19T03:43:58.236Z,33.40
2022-08-19T03:46:51.363Z,31.55
2022-08-19T03:49:41.634Z,33.20
2022-08-19T03:52:31.626Z,34.28
2022-08-19T03:55:21.538Z,34.28
2022-08-19T03:58:12.224Z,33.88
2022-08-19T04:01:02.510Z,29.13
2022-08-19T04:03:53.655Z,28.77
2022-08-19T04:06:45.013Z,31.92
2022-08-19T04:09:37.486Z,37.78
2022-08-19T04:12:28.085Z,33.25
2022-08-19T04:15:18.169Z,34.42
2022-08-19T04:18:10.739Z,32.80
2022-08-19T04:21:01.783Z,32.45
2022-08-19T04:23:52.457Z,31.50
2022-08-19T04:26:47.157Z,32.80
2022-08-19T04:29:40.378Z,34.50
2022-08-19T04:32:32.893Z,34.13
2022-08-19T04:35:25.009Z,30.13
2022-08-19T04:38:17.523Z,29.85
2022-08-19T04:41:26.300Z,35.58
2022-08-19T04:44:19.068Z,34.72
2022-08-19T04:47:10.996Z,33.20
2022-08-19T04:50:01.774Z,45.03
2022-08-19T04:52:52.652Z,38.67
2022-08-19T04:55:43.484Z,34.72
2022-08-19T04:58:34.834Z,36.97
2022-08-19T05:01:29.333Z,33.67
2022-08-19T05:04:21.388Z,34.72
2022-08-19T05:07:12.466Z,34.58
2022-08-19T05:10:05.462Z,37.97
2022-08-19T05:12:55.821Z,39.50
2022-08-19T05:15:55.265Z,38.53
2022-08-19T05:19:04.687Z,32.80
2022-08-19T05:22:27.187Z,32.60
2022-08-19T05:25:20.840Z,36.10
2022-08-19T05:28:11.208Z,35.28
2022-08-19T05:31:01.222Z,36.30
2022-08-19T05:33:51.336Z,34.78
2022-08-19T05:36:44.137Z,35.72
2022-08-19T05:39:37.501Z,37.73
2022-08-19T05:42:27.565Z,33.72
2022-08-19T05:45:17.800Z,36.85
2022-08-19T05:48:07.836Z,35.58
2022-08-19T05:50:57.860Z,35.38
2022-08-19T05:53:48.017Z,33.45
2022-08-19T05:56:38.954Z,35.47
2022-08-19T05:59:29.499Z,33.42
2022-08-19T06:02:21.634Z,37.80
2022-08-19T06:05:12.269Z,36.78
2022-08-19T06:08:01.920Z,36.17
2022-08-19T06:10:52.183Z,33.97
2022-08-19T06:13:43.241Z,34.97
2022-08-19T06:16:36.026Z,35.13
2022-08-19T06:19:27.248Z,35.50
2022-08-19T06:22:17.627Z,35.38
2022-08-19T06:25:10.045Z,38.30
2022-08-19T06:28:14.713Z,36.50
2022-08-19T06:31:09.224Z,34.78
2022-08-19T06:33:59.035Z,35.95
2022-08-19T06:36:52.041Z,39.05
2022-08-19T06:39:44.596Z,32.47
2022-08-19T06:42:35.701Z,36.20
2022-08-19T06:45:34.984Z,35.83
2022-08-19T06:48:26.241Z,36.25
2022-08-19T06:51:21.111Z,34.63
2022-08-19T06:54:19.422Z,34.53
2022-08-19T06:57:14.316Z,32.35
2022-08-19T07:00:09.741Z,32.78
2022-08-19T07:03:07.657Z,31.77
2022-08-19T07:06:07.179Z,32.60
2022-08-19T07:09:00.237Z,30.73
2022-08-19T07:11:53.520Z,29.75
2022-08-19T07:14:46.893Z,27.83
2022-08-19T07:17:40.133Z,25.83
2022-08-19T07:20:31.885Z,28.95
2022-08-19T07:23:22.936Z,27.88
2022-08-19T07:26:20.550Z,25.83
2022-08-19T07:32:11.556Z,25.65
2022-08-19T07:35:05.553Z,25.17
2022-08-19T07:37:55.951Z,29.13
2022-08-19T07:40:47.110Z,29.85
2022-08-19T07:43:37.830Z,30.55
2022-08-19T07:46:27.769Z,27.70
2022-08-19T07:49:20.130Z,26.55
2022-08-19T07:52:10.724Z,28.45
2022-08-19T07:55:04.470Z,28.58
2022-08-19T07:57:54.868Z,28.38
2022-08-19T08:00:47.301Z,27.20
2022-08-19T08:03:56.291Z,25.55
2022-08-19T08:07:05.046Z,24.70
2022-08-19T08:13:09.522Z,25.10
2022-08-19T08:15:57.494Z,23.75
2022-08-19T08:18:50.370Z,27.60
2022-08-19T08:24:36.946Z,25.58
2022-08-19T08:27:32.017Z,27.52
2022-08-19T08:30:26.389Z,29.88
2022-08-19T08:33:33.885Z,29.15
2022-08-19T08:36:26.324Z,25.70
2022-08-19T08:39:19.482Z,23.05
2022-08-19T08:42:21.891Z,24.80
2022-08-19T08:45:18.004Z,22.55
2022-08-19T08:48:42.165Z,27.83
2022-08-19T08:51:59.346Z,28.75
2022-08-19T08:54:55.409Z,28.48
2022-08-19T08:57:52.272Z,27.70
2022-08-19T09:00:46.756Z,24.58
2022-08-19T09:03:41.008Z,24.65
2022-08-19T09:06:41.329Z,23.67
2022-08-19T09:09:42.014Z,22.27
2022-08-19T09:12:53.972Z,22.35
2022-08-19T09:15:57.653Z,26.60
2022-08-19T09:18:53.351Z,28.27
2022-08-19T09:21:44.066Z,25.20
2022-08-19T09:24:33.935Z,22.33
2022-08-19T09:27:42.058Z,22.08
2022-08-19T09:30:41.713Z,23.90
2022-08-19T09:33:32.173Z,22.88
2022-08-19T09:36:34.757Z,21.42
2022-08-19T09:39:25.373Z,20.42
2022-08-19T09:42:30.529Z,21.42
2022-08-19T09:45:25.661Z,29.33
2022-08-19T09:48:19.124Z,25.48
2022-08-19T09:51:18.534Z,20.92
2022-08-19T09:54:11.582Z,20.33
2022-08-19T09:57:03.801Z,20.80
2022-08-19T09:59:57.735Z,26.05
2022-08-19T10:02:48.241Z,21.60
2022-08-19T10:05:55.306Z,21.40
2022-08-19T10:08:50.096Z,20.33
2022-08-19T10:11:46.978Z,19.73
2022-08-19T10:14:43.176Z,19.65
2022-08-19T10:17:36.071Z,19.02
2022-08-19T10:20:26.936Z,22.88
2022-08-19T10:23:17.784Z,17.85
2022-08-19T10:26:08.558Z,18.42
2022-08-19T10:28:58.772Z,16.23
2022-08-19T10:32:01.253Z,17.73
2022-08-19T10:34:57.203Z,16.20
2022-08-19T10:37:52.658Z,14.13
2022-08-19T10:40:47.855Z,15.75
2022-08-19T10:43:39.259Z,14.68
2022-08-19T10:46:33.983Z,10.82
2022-08-19T10:49:25.112Z,14.60
2022-08-19T10:52:34.013Z,8.05
2022-08-19T10:55:43.770Z,7.03
2022-08-19T10:58:33.860Z,7.05
2022-08-19T11:01:23.896Z,10.43
2022-08-19T11:04:18.521Z,8.32
2022-08-19T11:07:09.304Z,10.88
2022-08-19T11:09:59.808Z,11.25
2022-08-19T11:12:55.573Z,11.50
2022-08-19T11:15:48.408Z,11.98
2022-08-19T11:18:41.221Z,11.50
2022-08-19T11:21:34.594Z,14.18
2022-08-19T11:24:26.776Z,16.37
2022-08-19T11:27:16.999Z,10.75
2022-08-19T11:30:08.592Z,11.20
2022-08-19T11:33:04.605Z,12.40
2022-08-19T11:35:58.745Z,12.55
2022-08-19T11:38:50.562Z,16.90
2022-08-19T11:41:41.089Z,10.93
2022-08-19T11:44:31.366Z,13.70
2022-08-19T11:47:22.159Z,14.10
2022-08-19T11:50:12.546Z,13.23
2022-08-19T11:53:02.964Z,12.20
2022-08-19T11:55:56.802Z,12.43
2022-08-19T11:58:47.761Z,16.73
2022-08-19T12:01:38.020Z,14.40
2022-08-19T12:04:28.345Z,16.45
2022-08-19T12:07:18.650Z,13.48
2022-08-19T12:10:09.400Z,16.02
2022-08-19T12:13:01.880Z,13.43
2022-08-19T12:15:52.539Z,11.00
2022-08-19T12:18:47.454Z,12.18
2022-08-19T12:21:37.637Z,11.13
2022-08-19T12:24:28.093Z,15.85
2022-08-19T12:27:31.952Z,12.90
2022-08-19T12:30:28.732Z,11.25
2022-08-19T12:33:20.495Z,11.98
2022-08-19T12:36:13.940Z,13.68
2022-08-19T12:39:05.347Z,15.75
2022-08-19T12:41:55.777Z,12.80
2022-08-19T12:44:46.264Z,12.20
2022-08-19T12:47:37.992Z,12.52
2022-08-19T12:50:31.541Z,9.27
2022-08-19T12:53:22.097Z,7.97
2022-08-19T12:56:15.585Z,11.00
2022-08-19T12:59:06.282Z,8.98
2022-08-19T13:01:56.490Z,9.60
2022-08-19T13:04:47.541Z,12.07
2022-08-19T13:07:39.614Z,11.70
2022-08-19T13:10:35.677Z,11.30
2022-08-19T13:13:27.050Z,10.10
2022-08-19T13:16:18.231Z,9.50
2022-08-19T13:19:08.499Z,14.13
2022-08-19T13:22:00.146Z,12.05
2022-08-19T13:24:50.438Z,10.02
2022-08-19T13:27:41.519Z,11.15
2022-08-19T13:30:50.558Z,15.90
2022-08-19T13:33:40.783Z,14.20
2022-08-19T13:36:30.817Z,10.20
2022-08-19T13:39:21.561Z,11.23
2022-08-19T13:42:14.885Z,12.10
2022-08-19T13:45:07.734Z,7.97
2022-08-19T13:47:59.716Z,8.60
2022-08-19T13:50:50.109Z,9.80
2022-08-19T13:53:40.537Z,15.25
2022-08-19T13:56:30.700Z,12.07
2022-08-19T13:59:21.084Z,12.05
2022-08-19T14:02:11.740Z,12.73
2022-08-19T14:05:01.974Z,11.82
2022-08-19T14:07:52.736Z,12.55
2022-08-19T14:10:45.266Z,14.57
2022-08-19T14:13:35.896Z,10.38
2022-08-19T14:16:26.180Z,15.77
2022-08-19T14:19:16.355Z,14.40
2022-08-19T14:22:06.841Z,16.02
2022-08-19T14:24:58.252Z,22.25
2022-08-19T14:27:49.272Z,20.88
2022-08-19T14:30:39.399Z,20.38
2022-08-19T14:33:30.555Z,24.25
2022-08-19T14:36:22.005Z,24.15
2022-08-19T14:39:12.495Z,26.20
2022-08-19T14:42:09.313Z,27.08
2022-08-19T14:45:02.478Z,27.67
2022-08-19T14:47:53.436Z,27.98
2022-08-19T14:50:43.779Z,35.50
2022-08-19T14:53:35.243Z,27.08
2022-08-19T14:56:27.905Z,24.98
2022-08-19T14:59:18.051Z,30.02
2022-08-19T15:02:34.038Z,29.95
2022-08-19T15:05:18.539Z,30.40
2022-08-19T15:08:08.820Z,29.13
2022-08-19T15:10:59.819Z,29.35
2022-08-19T15:13:50.967Z,29.23
2022-08-19T15:16:42.769Z,29.52
2022-08-19T15:19:34.441Z,34.97
2022-08-19T15:22:24.696Z,39.85
2022-08-19T15:25:17.664Z,32.58
2022-08-19T15:28:08.280Z,34.10
2022-08-19T15:30:58.360Z,34.70
2022-08-19T15:33:49.937Z,36.42
2022-08-19T15:36:41.936Z,31.88
2022-08-19T15:39:33.351Z,37.65
2022-08-19T15:42:29.460Z,39.60
2022-08-19T15:45:22.292Z,36.55
2022-08-19T15:48:12.628Z,37.63
2022-08-19T15:51:02.921Z,35.85
2022-08-19T15:53:53.419Z,31.20
2022-08-19T15:57:06.596Z,38.47
2022-08-19T16:00:15.303Z,33.45
2022-08-19T16:03:25.576Z,34.92
2022-08-19T16:06:25.981Z,31.83
2022-08-19T16:09:23.540Z,32.55
2022-08-19T16:12:16.821Z,28.98
2022-08-19T16:15:09.144Z,29.15
2022-08-19T16:18:04.363Z,29.25
2022-08-19T16:20:54.532Z,27.25
2022-08-19T16:23:46.540Z,27.02
2022-08-19T16:26:37.150Z,28.38
2022-08-19T16:29:34.482Z,28.23
2022-08-19T16:32:29.202Z,26.30
2022-08-19T16:35:19.542Z,27.83
2022-08-19T16:38:09.918Z,25.95
2022-08-19T16:41:01.463Z,25.55
2022-08-19T16:43:52.572Z,26.88
2022-08-19T16:46:42.783Z,27.98
2022-08-19T16:49:53.465Z,31.77
2022-08-19T16:52:46.117Z,28.08
2022-08-19T16:55:36.501Z,27.42
2022-08-19T16:58:33.926Z,25.58
2022-08-19T17:01:24.181Z,22.52
2022-08-19T17:04:14.663Z,28.65
2022-08-19T17:07:05.620Z,29.40
2022-08-19T17:09:57.136Z,31.40
2022-08-19T17:12:47.411Z,28.13
2022-08-19T17:15:37.868Z,25.17
2022-08-19T17:18:29.769Z,26.00
2022-08-19T17:21:27.559Z,28.73
2022-08-19T17:24:17.801Z,24.45
2022-08-19T17:27:08.912Z,24.95
2022-08-19T17:30:00.952Z,24.48
2022-08-19T17:32:51.684Z,28.67
2022-08-19T17:35:43.658Z,30.42
2022-08-19T17:38:35.878Z,25.60
2022-08-19T17:41:27.252Z,26.63
2022-08-19T17:44:18.839Z,30.10
2022-08-19T17:47:08.675Z,27.15
2022-08-19T17:49:59.106Z,27.40
2022-08-19T17:52:52.466Z,27.17
2022-08-19T17:55:42.636Z,31.08
2022-08-19T17:58:40.432Z,31.25
2022-08-19T18:01:43.805Z,28.50
2022-08-19T18:04:46.872Z,25.02
2022-08-19T18:07:39.648Z,27.75
2022-08-19T18:10:35.640Z,31.13
2022-08-19T18:13:26.266Z,27.63
2022-08-19T18:16:18.716Z,26.88
2022-08-19T18:19:09.023Z,26.83
2022-08-19T18:21:59.290Z,27.75
2022-08-19T18:24:49.912Z,27.02
2022-08-19T18:27:40.226Z,25.88
2022-08-19T18:30:34.479Z,30.83
2022-08-19T18:33:25.629Z,28.60
2022-08-19T18:36:24.209Z,26.30
2022-08-19T18:39:44.217Z,26.80
2022-08-19T18:42:54.439Z,26.35
2022-08-19T18:46:03.801Z,29.90
2022-08-19T18:49:07.006Z,30.77
2022-08-19T18:51:57.752Z,31.40
2022-08-19T18:54:48.313Z,27.92
2022-08-19T18:57:38.599Z,26.92
2022-08-19T19:00:30.305Z,30.60
2022-08-19T19:03:20.683Z,28.48
2022-08-19T19:06:14.662Z,30.98
2022-08-19T19:09:08.269Z,33.08
2022-08-19T19:12:00.893Z,29.97
2022-08-19T19:14:51.146Z,31.60
2022-08-19T19:17:42.033Z,28.10
2022-08-19T19:20:35.336Z,31.50
2022-08-19T19:23:26.956Z,30.38
2022-08-19T19:26:17.678Z,29.55
2022-08-19T19:29:07.597Z,29.42
2022-08-19T19:31:58.016Z,32.70
2022-08-19T19:34:48.774Z,30.67
2022-08-19T19:37:38.995Z,30.20
2022-08-19T19:40:29.513Z,25.77
2022-08-19T19:43:19.986Z,27.48
2022-08-19T19:46:10.310Z,29.45
2022-08-19T19:49:00.541Z,28.55
2022-08-19T19:51:51.919Z,29.38
2022-08-19T19:54:42.097Z,31.40
2022-08-19T19:57:39.595Z,31.45
2022-08-19T20:00:30.163Z,28.85
2022-08-19T20:03:21.633Z,26.50
2022-08-19T20:06:14.217Z,27.63
2022-08-19T20:09:08.051Z,27.00
2022-08-19T20:11:58.385Z,29.73
2022-08-19T20:14:48.918Z,30.63
2022-08-19T20:17:42.295Z,27.77
2022-08-19T20:20:32.360Z,25.75
2022-08-19T20:23:23.143Z,21.27
2022-08-19T20:26:21.375Z,25.88
2022-08-19T20:29:39.572Z,26.05
2022-08-19T20:32:34.796Z,26.08
2022-08-19T20:35:24.936Z,28.85
2022-08-19T20:38:15.677Z,30.23
2022-08-19T20:41:07.138Z,25.38
2022-08-19T20:43:57.132Z,26.73
2022-08-19T20:46:55.601Z,23.20
2022-08-19T20:49:46.674Z,27.50
2022-08-19T20:52:38.293Z,26.05
2022-08-19T20:55:30.318Z,27.95
2022-08-19T20:58:22.253Z,27.33
2022-08-19T21:01:12.507Z,28.80
2022-08-19T21:04:03.390Z,30.90
2022-08-19T21:06:54.670Z,28.77
2022-08-19T21:09:45.215Z,25.45
2022-08-19T21:12:35.624Z,30.02
2022-08-19T21:15:25.672Z,26.75
2022-08-19T21:18:18.671Z,26.70
2022-08-19T21:21:09.167Z,29.75
2022-08-19T21:23:59.732Z,27.95
2022-08-19T21:26:51.460Z,27.60
2022-08-19T21:29:42.242Z,27.75
2022-08-19T21:32:34.740Z,24.00
2022-08-19T21:35:25.051Z,25.23
2022-08-19T21:38:15.448Z,24.58
2022-08-19T21:41:06.480Z,22.92
2022-08-19T21:43:57.019Z,20.70
2022-08-19T21:46:50.526Z,24.85
2022-08-19T21:49:41.317Z,11.93
2022-08-19T21:52:31.508Z,8.13
2022-08-19T21:55:21.717Z,6.28
2022-08-19T21:58:12.596Z,6.72
2022-08-19T22:01:06.271Z,4.53
2022-08-19T22:03:56.228Z,2.85
2022-08-19T22:06:46.964Z,2.78
2022-08-19T22:09:38.282Z,3.08
2022-08-19T22:12:31.598Z,3.58
2022-08-19T22:15:23.904Z,2.80
2022-08-19T22:18:17.860Z,3.92
2022-08-19T22:21:11.644Z,6.78
2022-08-19T22:24:01.806Z,6.35
2022-08-19T22:26:54.534Z,3.25
2022-08-19T22:29:44.546Z,2.92
2022-08-19T22:32:35.139Z,5.45
2022-08-19T22:35:25.954Z,2.83
2022-08-19T22:38:16.319Z,4.68
2022-08-19T22:41:07.963Z,4.43
2022-08-19T22:43:58.428Z,2.50
2022-08-19T22:46:49.398Z,2.50
2022-08-19T22:49:39.706Z,3.90
2022-08-19T22:52:30.081Z,7.28
2022-08-19T22:55:20.190Z,4.70
2022-08-19T22:58:10.647Z,4.28
2022-08-19T23:01:01.216Z,5.40
2022-08-19T23:03:51.322Z,2.17
2022-08-19T23:06:42.182Z,6.43
2022-08-19T23:09:32.436Z,3.55
2022-08-19T23:12:33.089Z,4.15
2022-08-19T23:15:26.063Z,3.85
2022-08-19T23:18:17.044Z,2.53
2022-08-19T23:21:09.592Z,4.35
2022-08-19T23:23:59.768Z,3.22
2022-08-19T23:27:08.943Z,2.97
2022-08-19T23:30:31.553Z,4.22
2022-08-19T23:33:26.012Z,6.45
2022-08-19T23:36:36.067Z,2.35
2022-08-19T23:39:29.762Z,2.28
2022-08-19T23:42:20.528Z,2.60
2022-08-19T23:45:11.037Z,1.73
2022-08-19T23:48:03.312Z,2.47
2022-08-19T23:50:54.121Z,1.67
2022-08-19T23:53:44.837Z,2.03
2022-08-19T23:56:35.235Z,2.22
2022-08-19T23:59:25.717Z,1.65
